createdAt,value
2022-08-22T00:02:57.375Z,99997.06
2022-08-22T00:03:33.102Z,100006.17
2022-08-22T00:08:55.663Z,100016.23
2022-08-22T00:14:14.729Z,100016.86
2022-08-22T00:19:33.110Z,100028.67
2022-08-22T00:24:41.975Z,100038.21
2022-08-22T00:29:50.089Z,100041.23
2022-08-22T00:35:04.140Z,100043.71
2022-08-22T00:40:25.313Z,100039.15
2022-08-22T00:45:53.048Z,100048.84
2022-08-22T00:51:07.715Z,100047.38
2022-08-22T00:56:29.207Z,100045.95
2022-08-22T01:01:36.563Z,100050.41
2022-08-22T01:07:11.235Z,100056.67
2022-08-22T01:12:33.427Z,100056.98
2022-08-22T01:17:36.112Z,100050.68
2022-08-22T01:23:16.237Z,100054.80
2022-08-22T01:28:46.972Z,100051.91
2022-08-22T01:34:18.905Z,100053.02
2022-08-22T01:39:42.120Z,100048.73
2022-08-22T01:45:12.381Z,100051.97
2022-08-22T01:50:32.559Z,100051.42
2022-08-22T01:55:46.211Z,100044.96
2022-08-22T02:01:14.946Z,100049.30
2022-08-22T02:06:44.434Z,100053.83
2022-08-22T02:11:54.951Z,100050.95
2022-08-22T02:17:13.480Z,100043.21
2022-08-22T02:22:29.697Z,100046.52
2022-08-22T02:28:08.524Z,100054.92
2022-08-22T02:33:34.754Z,100050.92
2022-08-22T02:39:05.082Z,100047.98
2022-08-22T02:44:28.052Z,100048.21
2022-08-22T02:49:43.891Z,100043.78
2022-08-22T02:55:05.965Z,100043.92
2022-08-22T03:00:32.770Z,100052.40
2022-08-22T03:05:35.901Z,100051.17
2022-08-22T03:10:54.694Z,100057.86
2022-08-22T03:16:10.552Z,100058.79
2022-08-22T03:21:35.491Z,100063.23
2022-08-22T03:26:53.480Z,100066.38
2022-08-22T03:32:11.954Z,100061.83
2022-08-22T03:37:23.922Z,100062.27
2022-08-22T03:43:12.897Z,100063.68
2022-08-22T03:48:38.368Z,100071.11
2022-08-22T03:54:12.005Z,100073.02
2022-08-22T03:59:58.714Z,100073.89
2022-08-22T04:05:20.752Z,100068.36
2022-08-22T04:10:47.147Z,100063.66
2022-08-22T04:15:55.617Z,100067.83
2022-08-22T04:21:16.662Z,100064.23
2022-08-22T04:26:19.370Z,100066.63
2022-08-22T04:31:27.984Z,100073.34
2022-08-22T04:36:46.078Z,100057.91
2022-08-22T04:42:36.677Z,100052.67
2022-08-22T04:47:56.736Z,100057.59
2022-08-22T04:53:08.568Z,100056.04
2022-08-22T04:58:33.215Z,100073.23
2022-08-22T05:03:44.858Z,100065.48
2022-08-22T05:08:53.979Z,100089.89
2022-08-22T05:14:02.594Z,100112.04
2022-08-22T05:19:16.956Z,100115.23
2022-08-22T05:24:31.849Z,100123.22
2022-08-22T05:29:35.008Z,100129.63
2022-08-22T05:34:42.006Z,100126.86
2022-08-22T05:39:54.988Z,100145.55
2022-08-22T05:44:58.862Z,100144.40
2022-08-22T05:50:14.501Z,100151.13
2022-08-22T05:55:47.351Z,100151.36
2022-08-22T06:01:00.045Z,100155.27
2022-08-22T06:06:13.418Z,100163.89
2022-08-22T06:11:22.323Z,100167.11
2022-08-22T06:16:56.850Z,100180.02
2022-08-22T06:22:00.967Z,100183.67
2022-08-22T06:27:12.986Z,100182.84
2022-08-22T06:32:58.309Z,100182.69
2022-08-22T06:38:03.816Z,100183.70
2022-08-22T06:43:07.126Z,100201.40
2022-08-22T06:48:09.977Z,100198.09
2022-08-22T06:53:33.023Z,100188.24
2022-08-22T06:58:46.411Z,100199.16
2022-08-22T07:03:55.297Z,100204.33
2022-08-22T07:08:58.874Z,100213.07
2022-08-22T07:14:05.755Z,100217.46
2022-08-22T07:19:13.434Z,100225.33
2022-08-22T07:24:26.897Z,100223.60
2022-08-22T07:29:44.607Z,100239.66
2022-08-22T07:34:50.152Z,100257.00
2022-08-22T07:40:09.822Z,100263.60
2022-08-22T07:45:39.030Z,100259.69
2022-08-22T07:51:06.051Z,100270.88
2022-08-22T07:56:29.246Z,100292.34
2022-08-22T08:01:33.069Z,100286.02
2022-08-22T08:06:37.011Z,100289.64
2022-08-22T08:11:42.594Z,100287.56
2022-08-22T08:17:10.760Z,100288.14
2022-08-22T08:22:18.921Z,100294.48
2022-08-22T08:27:45.160Z,100299.51
2022-08-22T08:32:57.530Z,100289.12
2022-08-22T08:38:24.100Z,100302.30
2022-08-22T08:44:00.816Z,100305.85
2022-08-22T08:49:33.581Z,100313.96
2022-08-22T08:54:55.742Z,100317.21
2022-08-22T09:00:12.284Z,100312.40
2022-08-22T09:06:09.735Z,100315.45
2022-08-22T09:11:12.419Z,100320.77
2022-08-22T09:16:36.695Z,100313.95
2022-08-22T09:22:00.976Z,100310.83
2022-08-22T09:27:33.082Z,100315.09
2022-08-22T09:32:55.676Z,100320.06
2022-08-22T09:38:03.208Z,100318.82
2022-08-22T09:43:11.625Z,100321.90
2022-08-22T09:48:29.768Z,100324.98
2022-08-22T09:53:56.570Z,100328.05
2022-08-22T09:59:06.658Z,100327.65
2022-08-22T10:04:21.511Z,100325.27
2022-08-22T10:09:31.334Z,100326.11
2022-08-22T10:15:00.198Z,100327.91
2022-08-22T10:20:10.224Z,100327.23
2022-08-22T10:25:35.276Z,100330.52
2022-08-22T10:31:10.497Z,100336.27
2022-08-22T10:36:20.934Z,100335.00
2022-08-22T10:41:26.488Z,100339.16
2022-08-22T10:46:42.270Z,100341.28
2022-08-22T10:51:57.165Z,100343.94
2022-08-22T10:57:14.510Z,100343.31
2022-08-22T11:03:01.050Z,100347.56
2022-08-22T11:08:27.285Z,100347.61
2022-08-22T11:13:30.627Z,100338.14
2022-08-22T11:18:57.946Z,100336.59
2022-08-22T11:24:06.568Z,100339.64
2022-08-22T11:29:58.174Z,100343.20
2022-08-22T11:35:25.916Z,100346.40
2022-08-22T11:40:42.842Z,100350.70
2022-08-22T11:45:52.466Z,100347.56
2022-08-22T11:51:00.670Z,100352.16
2022-08-22T11:56:10.448Z,100351.09
2022-08-22T12:01:21.973Z,100351.61
2022-08-22T12:06:50.294Z,100343.53
2022-08-22T12:12:12.610Z,100346.30
2022-08-22T12:17:50.709Z,100346.74
2022-08-22T12:23:49.492Z,100343.98
2022-08-22T12:29:01.931Z,100342.88
2022-08-22T12:34:39.399Z,100348.23
2022-08-22T12:40:14.296Z,100345.09
2022-08-22T12:45:22.181Z,100342.69
2022-08-22T12:50:49.822Z,100340.14
2022-08-22T12:56:20.512Z,100342.07
2022-08-22T13:01:34.351Z,100337.92
2022-08-22T13:06:37.906Z,100334.45
2022-08-22T13:11:44.484Z,100332.85
2022-08-22T13:16:52.515Z,100328.47
2022-08-22T13:22:09.483Z,100325.27
2022-08-22T13:27:51.038Z,100326.02
2022-08-22T13:32:56.834Z,100327.24
2022-08-22T13:38:12.340Z,100322.46
2022-08-22T13:43:22.479Z,100318.32
2022-08-22T13:48:30.399Z,100324.31
2022-08-22T13:53:49.411Z,100323.88
2022-08-22T13:59:21.869Z,100322.89
2022-08-22T14:04:41.055Z,100325.08
2022-08-22T14:09:54.445Z,100318.44
2022-08-22T14:15:01.326Z,100315.84
2022-08-22T14:20:11.701Z,100309.59
2022-08-22T14:25:22.078Z,100309.05
2022-08-22T14:30:33.652Z,100312.26
2022-08-22T14:35:52.666Z,100306.59
2022-08-22T14:41:03.311Z,100305.56
2022-08-22T14:46:12.689Z,100304.91
2022-08-22T14:51:24.460Z,100309.52
2022-08-22T14:56:30.228Z,100307.75
2022-08-22T15:01:51.550Z,100312.87
2022-08-22T15:06:58.745Z,100315.46
2022-08-22T15:12:05.654Z,100315.93
2022-08-22T15:17:10.374Z,100313.24
2022-08-22T15:22:28.948Z,100310.04
2022-08-22T15:27:35.036Z,100305.31
2022-08-22T15:32:41.759Z,100304.96
2022-08-22T15:38:27.743Z,100302.48
2022-08-22T15:43:36.028Z,100308.11
2022-08-22T15:48:41.471Z,100309.27
2022-08-22T15:54:16.215Z,100313.41
2022-08-22T15:59:53.642Z,100305.77
2022-08-22T16:05:09.482Z,100300.90
2022-08-22T16:10:21.181Z,100301.13
2022-08-22T16:15:54.088Z,100297.45
2022-08-22T16:21:01.180Z,100290.19
2022-08-22T16:26:03.793Z,100291.89
2022-08-22T16:31:34.164Z,100296.45
2022-08-22T16:36:51.092Z,100296.80
2022-08-22T16:42:18.353Z,100300.51
2022-08-22T16:47:41.810Z,100304.40
2022-08-22T16:53:08.726Z,100311.92
2022-08-22T16:58:57.865Z,100311.77
2022-08-22T17:04:25.078Z,100316.50
2022-08-22T17:09:42.117Z,100322.78
2022-08-22T17:15:06.596Z,100327.42
2022-08-22T17:20:23.039Z,100334.93
2022-08-22T17:25:34.954Z,100339.46
2022-08-22T17:30:55.422Z,100337.51
2022-08-22T17:36:26.378Z,100332.95
2022-08-22T17:41:48.951Z,100344.51
2022-08-22T17:47:01.939Z,100347.52
2022-08-22T17:52:11.257Z,100346.52
2022-08-22T17:57:27.891Z,100353.14
2022-08-22T18:02:54.962Z,100353.05
2022-08-22T18:08:38.471Z,100360.09
2022-08-22T18:14:05.025Z,100367.32
2022-08-22T18:19:14.098Z,100372.20
2022-08-22T18:24:36.301Z,100381.24
2022-08-22T18:29:54.692Z,100384.92
2022-08-22T18:35:19.817Z,100385.47
2022-08-22T18:40:46.887Z,100392.02
2022-08-22T18:45:58.182Z,100392.20
2022-08-22T18:51:23.870Z,100387.17
2022-08-22T18:56:50.170Z,100382.83
2022-08-22T19:02:37.380Z,100380.34
2022-08-22T19:07:55.578Z,100379.77
2022-08-22T19:13:39.585Z,100379.91
2022-08-22T19:18:53.106Z,100386.19
2022-08-22T19:23:56.041Z,100378.12
2022-08-22T19:29:24.392Z,100372.98
2022-08-22T19:34:30.067Z,100372.02
2022-08-22T19:39:41.859Z,100373.36
2022-08-22T19:45:05.510Z,100373.64
2022-08-22T19:50:23.674Z,100367.61
2022-08-22T19:55:38.526Z,100375.34
2022-08-22T20:00:59.362Z,100383.70
2022-08-22T20:06:33.781Z,100393.05
2022-08-22T20:11:42.723Z,100395.98
2022-08-22T20:17:07.754Z,100382.69
2022-08-22T20:22:27.733Z,100383.55
2022-08-22T20:27:43.206Z,100384.93
2022-08-22T20:32:47.573Z,100381.38
2022-08-22T20:38:08.912Z,100376.40
2022-08-22T20:43:32.484Z,100371.38
2022-08-22T20:48:39.571Z,100372.07
2022-08-22T20:53:42.795Z,100366.98
2022-08-22T20:58:49.077Z,100368.93
2022-08-22T21:03:53.207Z,100368.20
2022-08-22T21:09:35.367Z,100362.48
2022-08-22T21:14:46.076Z,100353.92
2022-08-22T21:19:49.483Z,100355.03
2022-08-22T21:24:54.517Z,100360.36
2022-08-22T21:30:00.173Z,100354.20
2022-08-22T21:35:07.263Z,100351.76
2022-08-22T21:40:14.849Z,100346.42
2022-08-22T21:45:49.442Z,100341.23
2022-08-22T21:50:52.541Z,100328.77
2022-08-22T21:56:28.541Z,100316.86
2022-08-22T22:01:32.985Z,100313.16
2022-08-22T22:06:35.692Z,100317.31
2022-08-22T22:11:39.708Z,100314.58
2022-08-22T22:16:42.425Z,100314.65
2022-08-22T22:21:44.988Z,100312.47
2022-08-22T22:26:47.732Z,100301.44
2022-08-22T22:31:50.499Z,100293.83
2022-08-22T22:36:53.853Z,100299.82
2022-08-22T22:41:56.566Z,100304.90
2022-08-22T22:47:00.752Z,100309.36
2022-08-22T22:52:04.012Z,100305.01
2022-08-22T22:57:07.468Z,100303.52
2022-08-22T23:02:19.395Z,100295.67
2022-08-22T23:07:24.529Z,100290.13
2022-08-22T23:12:27.437Z,100289.08
2022-08-22T23:17:30.434Z,100287.67
2022-08-22T23:22:33.633Z,100286.04
2022-08-22T23:27:36.725Z,100274.88
2022-08-22T23:32:39.477Z,100261.79
2022-08-22T23:37:42.092Z,100257.64
2022-08-22T23:42:44.874Z,100261.05
2022-08-22T23:47:47.906Z,100268.16
2022-08-22T23:52:50.754Z,100272.13
2022-08-22T23:57:53.462Z,100263.92
